Time;durP1;ratioP1;P1;durP2;ratioP2;P2;SDS_P1;SDS_P2;PMS_P1;PMS_P2;Temp;Humidity;BMP_temperature;BMP_pressure;BME280_temperature;BME280_humidity;BME280_pressure;Samples;Min_cycle;Max_cycle;Signal;HPM_P1;HPM_P2
2023/08/09 00:02:19;;;;;;;5.68;1.67;;;16.20;99.90;;;;;;4998904;28;20034;-68
2023/08/09 00:04:44;;;;;;;4.75;1.80;;;16.20;99.90;;;;;;4998776;28;20033;-68
2023/08/09 00:07:10;;;;;;;3.97;1.60;;;16.10;99.90;;;;;;4998983;28;20034;-68
2023/08/09 00:09:35;;;;;;;2.08;1.35;;;16.10;99.90;;;;;;4999061;28;20033;-69
2023/08/09 00:12:01;;;;;;;5.05;1.45;;;16.20;99.90;;;;;;4999609;28;20041;-69
2023/08/09 00:14:26;;;;;;;3.65;2.08;;;16.10;99.90;;;;;;4998746;28;20026;-69
2023/08/09 00:16:52;;;;;;;3.60;1.60;;;16.00;99.90;;;;;;4998853;28;20029;-69
2023/08/09 00:19:17;;;;;;;3.83;1.70;;;16.00;99.90;;;;;;4998501;28;20028;-72
2023/08/09 00:21:43;;;;;;;3.88;2.28;;;15.90;99.90;;;;;;4999599;28;20026;-68
2023/08/09 00:24:08;;;;;;;5.05;1.92;;;16.00;99.90;;;;;;4998354;28;20033;-68
2023/08/09 00:26:34;;;;;;;7.00;2.38;;;16.00;99.90;;;;;;4998615;28;20030;-72
2023/08/09 00:28:59;;;;;;;3.13;1.60;;;16.10;99.90;;;;;;4998296;28;20023;-72
2023/08/09 00:31:25;;;;;;;7.22;2.10;;;16.00;99.90;;;;;;4998517;28;20029;-72
2023/08/09 00:33:50;;;;;;;6.72;2.20;;;16.00;99.90;;;;;;4999085;28;20029;-72
2023/08/09 00:36:16;;;;;;;3.90;1.83;;;16.00;99.90;;;;;;4998282;28;20210;-72
2023/08/09 00:38:43;;;;;;;3.13;1.63;;;16.00;99.90;;;;;;4998563;28;20027;-69
2023/08/09 00:41:08;;;;;;;4.25;1.52;;;16.10;99.90;;;;;;4998358;28;20038;-69
2023/08/09 00:43:34;;;;;;;4.63;1.70;;;16.10;99.90;;;;;;4997972;28;20022;-69
2023/08/09 00:45:59;;;;;;;7.82;1.77;;;16.20;99.90;;;;;;4998230;28;20046;-72
2023/08/09 00:48:25;;;;;;;8.55;2.00;;;16.20;99.90;;;;;;4997955;28;20036;-72
2023/08/09 00:50:51;;;;;;;2.05;1.48;;;16.20;99.90;;;;;;4997916;28;20065;-72
2023/08/09 00:53:17;;;;;;;4.53;2.22;;;16.20;99.90;;;;;;4997713;28;20034;-72
2023/08/09 00:55:42;;;;;;;3.75;1.90;;;16.30;99.90;;;;;;4997676;28;20105;-72
2023/08/09 00:58:08;;;;;;;3.70;1.98;;;16.20;99.90;;;;;;4998097;28;20031;-72
2023/08/09 01:00:33;;;;;;;5.32;1.75;;;16.30;99.90;;;;;;4998417;28;20028;-72
2023/08/09 01:02:59;;;;;;;6.47;1.77;;;16.30;99.90;;;;;;4997936;28;20053;-72
2023/08/09 01:05:32;;;;;;;6.55;2.33;;;16.40;99.90;;;;;;4997769;28;20037;-71
2023/08/09 01:08:14;;;;;;;3.97;1.92;;;16.40;99.90;;;;;;4997497;28;20022;-72
2023/08/09 01:10:53;;;;;;;2.35;1.80;;;16.30;99.90;;;;;;4997654;28;20025;-72
2023/08/09 01:13:19;;;;;;;3.50;1.80;;;16.40;99.90;;;;;;4997916;28;20081;-72
2023/08/09 01:15:47;;;;;;;5.70;1.90;;;16.40;99.90;;;;;;4997441;28;20026;-72
2023/08/09 01:18:14;;;;;;;2.47;1.80;;;16.30;99.90;;;;;;4997420;28;20026;-72
2023/08/09 01:20:40;;;;;;;3.17;1.48;;;16.40;99.90;;;;;;4998203;28;20109;-72
2023/08/09 01:23:14;;;;;;;6.30;1.92;;;16.40;99.90;;;;;;4997725;28;20049;-72
2023/08/09 01:25:39;;;;;;;3.50;1.83;;;16.40;99.90;;;;;;4997931;28;20019;-72
2023/08/09 01:28:05;;;;;;;2.38;1.58;;;16.30;99.90;;;;;;4998268;28;20033;-72
2023/08/09 01:30:31;;;;;;;8.68;2.95;;;16.30;99.90;;;;;;4997267;28;20019;-72
2023/08/09 01:32:57;;;;;;;3.97;1.63;;;16.30;99.90;;;;;;4997441;28;20049;-67
2023/08/09 01:35:25;;;;;;;2.08;1.55;;;16.40;99.90;;;;;;4997721;28;20030;-68
2023/08/09 01:37:55;;;;;;;8.68;2.40;;;16.40;99.90;;;;;;4998042;28;20026;-68
2023/08/09 01:40:22;;;;;;;3.80;1.80;;;16.40;99.90;;;;;;4997465;28;20053;-68
2023/08/09 01:42:51;;;;;;;2.47;1.80;;;16.40;99.90;;;;;;4997377;28;20019;-67
2023/08/09 01:45:19;;;;;;;4.85;1.98;;;16.40;99.90;;;;;;4997345;28;20049;-67
2023/08/09 01:47:44;;;;;;;2.55;2.03;;;16.40;99.90;;;;;;4998041;28;20157;-72
2023/08/09 01:50:23;;;;;;;2.90;2.00;;;16.40;99.90;;;;;;4996991;28;20034;-72
2023/08/09 01:52:49;;;;;;;4.53;1.55;;;16.50;99.90;;;;;;4997881;28;20077;-72
2023/08/09 01:55:18;;;;;;;7.15;2.33;;;16.50;99.90;;;;;;4997440;28;20023;-71
2023/08/09 01:57:47;;;;;;;4.20;1.90;;;16.50;99.90;;;;;;4996931;28;20057;-72
2023/08/09 02:00:16;;;;;;;6.65;2.03;;;16.40;99.90;;;;;;4996822;28;20026;-72
2023/08/09 02:02:42;;;;;;;4.40;2.10;;;16.40;99.90;;;;;;4996734;28;20026;-71
2023/08/09 02:05:08;;;;;;;4.90;2.75;;;16.30;99.90;;;;;;4996597;28;20126;-71
2023/08/09 02:07:34;;;;;;;2.75;1.75;;;16.40;99.90;;;;;;4998369;28;20070;-71
2023/08/09 02:09:59;;;;;;;4.50;2.40;;;16.50;99.90;;;;;;4996712;28;20030;-71
2023/08/09 02:12:25;;;;;;;5.55;2.20;;;16.40;99.90;;;;;;4997596;28;20042;-72
2023/08/09 02:14:50;;;;;;;3.88;2.05;;;16.40;99.90;;;;;;4996991;28;20050;-72
2023/08/09 02:17:16;;;;;;;2.60;2.08;;;16.40;99.90;;;;;;4996816;28;20091;-72
2023/08/09 02:19:41;;;;;;;3.60;1.83;;;16.50;99.90;;;;;;4996717;28;20026;-72
2023/08/09 02:22:07;;;;;;;4.93;1.88;;;16.50;99.90;;;;;;4997016;28;20022;-71
2023/08/09 02:24:33;;;;;;;4.60;3.03;;;16.50;99.90;;;;;;4996536;28;20027;-71
2023/08/09 02:26:58;;;;;;;4.85;1.77;;;16.50;99.90;;;;;;4996489;28;20030;-71
2023/08/09 02:29:24;;;;;;;6.75;2.15;;;16.50;99.90;;;;;;4997335;28;20030;-72
2023/08/09 02:31:49;;;;;;;4.05;2.30;;;16.40;99.90;;;;;;4997056;28;20026;-71
2023/08/09 02:34:19;;;;;;;5.45;2.17;;;16.40;99.90;;;;;;4997581;28;20117;-71
2023/08/09 02:36:45;;;;;;;4.00;2.10;;;16.50;99.90;;;;;;4997461;28;20041;-71
2023/08/09 02:39:10;;;;;;;2.13;1.80;;;16.40;99.90;;;;;;4996811;28;20037;-69
2023/08/09 02:41:37;;;;;;;3.65;1.70;;;16.40;99.90;;;;;;4996567;28;20023;-68
2023/08/09 02:44:03;;;;;;;4.47;2.20;;;16.40;99.90;;;;;;4996402;28;20033;-68
2023/08/09 02:46:29;;;;;;;4.53;1.88;;;16.30;99.90;;;;;;4996473;28;20054;-68
2023/08/09 02:48:55;;;;;;;4.00;2.17;;;16.40;99.90;;;;;;4997545;28;20089;-68
2023/08/09 02:51:20;;;;;;;5.47;2.28;;;16.30;99.90;;;;;;4996646;28;20026;-69
2023/08/09 02:54:03;;;;;;;3.15;1.75;;;16.30;99.90;;;;;;4999697;28;20092;-68
2023/08/09 02:56:30;;;;;;;2.55;1.80;;;16.30;99.90;;;;;;5000424;28;20045;-69
2023/08/09 02:58:56;;;;;;;3.90;1.98;;;16.30;99.90;;;;;;4999961;28;20023;-69
2023/08/09 03:01:22;;;;;;;5.07;1.95;;;16.30;99.90;;;;;;5000862;28;20030;-69
2023/08/09 03:03:51;;;;;;;2.67;1.88;;;16.40;99.90;;;;;;5000147;28;20038;-69
2023/08/09 03:06:18;;;;;;;6.88;1.67;;;16.40;99.90;;;;;;5000909;28;20038;-69
2023/08/09 03:08:48;;;;;;;2.13;1.67;;;16.30;99.90;;;;;;5000701;28;20029;-68
2023/08/09 03:11:13;;;;;;;4.93;1.95;;;16.40;99.90;;;;;;4999852;28;20026;-68
2023/08/09 03:13:39;;;;;;;3.78;1.75;;;16.40;99.90;;;;;;4999912;28;20030;-68
2023/08/09 03:16:05;;;;;;;3.25;1.90;;;16.30;99.90;;;;;;5000146;28;20029;-68
2023/08/09 03:18:31;;;;;;;4.90;2.05;;;16.20;99.90;;;;;;5000815;28;20019;-68
2023/08/09 03:20:57;;;;;;;3.00;2.15;;;16.20;99.90;;;;;;4999564;28;20064;-68
2023/08/09 03:23:22;;;;;;;4.55;1.65;;;16.10;99.90;;;;;;5000486;28;20042;-68
2023/08/09 03:25:48;;;;;;;5.43;1.95;;;16.20;99.90;;;;;;4999408;28;20080;-68
2023/08/09 03:28:13;;;;;;;4.03;2.10;;;16.10;99.90;;;;;;4999874;28;20042;-68
2023/08/09 03:30:39;;;;;;;4.78;2.17;;;16.20;99.90;;;;;;4999725;28;20030;-68
2023/08/09 03:33:05;;;;;;;4.22;2.17;;;16.10;99.90;;;;;;4999341;28;20129;-69
2023/08/09 03:35:30;;;;;;;4.63;2.53;;;16.20;99.90;;;;;;4999994;28;20026;-68
2023/08/09 03:37:56;;;;;;;3.28;1.88;;;16.10;99.90;;;;;;4999316;28;20019;-68
2023/08/09 03:40:21;;;;;;;3.30;2.33;;;16.20;99.90;;;;;;4999688;28;20113;-68
2023/08/09 03:42:47;;;;;;;3.83;2.50;;;16.20;99.90;;;;;;4999708;28;20117;-68
2023/08/09 03:45:13;;;;;;;3.65;2.33;;;16.20;99.90;;;;;;4999274;28;20030;-68
2023/08/09 03:47:38;;;;;;;4.50;2.38;;;16.20;99.90;;;;;;5000032;28;20026;-68
2023/08/09 03:50:06;;;;;;;6.72;2.28;;;16.20;99.90;;;;;;4999963;28;20038;-68
2023/08/09 03:52:33;;;;;;;7.15;2.60;;;16.20;99.90;;;;;;4999011;28;20034;-69
2023/08/09 03:54:59;;;;;;;3.63;2.10;;;16.20;99.90;;;;;;4999385;28;20081;-69
2023/08/09 03:57:24;;;;;;;4.97;1.92;;;16.30;99.90;;;;;;4998816;28;20023;-69
2023/08/09 03:59:50;;;;;;;5.18;2.53;;;16.40;99.90;;;;;;4999844;28;20080;-68
2023/08/09 04:02:17;;;;;;;3.65;2.35;;;16.30;99.90;;;;;;4999531;28;20023;-69
2023/08/09 04:04:43;;;;;;;2.38;1.98;;;16.30;99.90;;;;;;4999458;28;20026;-69
2023/08/09 04:07:09;;;;;;;4.45;2.30;;;16.30;99.90;;;;;;4999756;28;20034;-68
2023/08/09 04:09:35;;;;;;;2.72;2.03;;;16.30;99.90;;;;;;4999514;28;20022;-68
2023/08/09 04:12:03;;;;;;;5.28;2.67;;;16.20;99.90;;;;;;4998776;28;20026;-68
2023/08/09 04:14:28;;;;;;;4.57;2.75;;;16.20;99.90;;;;;;4999663;28;20023;-68
2023/08/09 04:16:54;;;;;;;1.77;1.13;;;16.10;99.90;;;;;;4998853;28;20033;-68
2023/08/09 04:19:20;;;;;;;1.63;1.05;;;15.80;99.90;;;;;;4998446;28;20018;-68
2023/08/09 04:21:45;;;;;;;0.82;0.80;;;15.50;99.90;;;;;;4998486;28;20022;-68
2023/08/09 04:24:11;;;;;;;1.77;0.90;;;15.40;99.90;;;;;;4998430;28;20026;-68
2023/08/09 04:26:36;;;;;;;1.30;0.90;;;15.10;99.90;;;;;;4998260;28;20018;-68
2023/08/09 04:29:02;;;;;;;1.63;1.10;;;14.90;99.90;;;;;;4998330;28;20022;-68
2023/08/09 04:31:28;;;;;;;2.33;0.90;;;14.80;99.90;;;;;;4999145;28;20061;-68
2023/08/09 04:33:54;;;;;;;2.75;1.00;;;14.70;99.90;;;;;;4998050;28;20084;-68
2023/08/09 04:36:20;;;;;;;2.10;1.20;;;14.70;99.90;;;;;;4998244;28;20026;-68
2023/08/09 04:38:46;;;;;;;2.17;1.05;;;14.80;99.90;;;;;;4998971;28;20030;-68
2023/08/09 04:41:12;;;;;;;1.80;1.02;;;14.80;99.90;;;;;;4999055;28;20053;-68
2023/08/09 04:43:43;;;;;;;1.83;1.08;;;14.70;99.90;;;;;;4999156;28;20030;-68
2023/08/09 04:46:10;;;;;;;2.10;1.02;;;14.80;99.90;;;;;;4998018;28;20030;-68
2023/08/09 04:48:37;;;;;;;1.67;1.10;;;14.80;99.90;;;;;;4999067;28;20027;-68
2023/08/09 04:51:03;;;;;;;1.17;0.95;;;14.80;99.90;;;;;;4998906;28;20027;-68
2023/08/09 04:53:29;;;;;;;0.82;0.82;;;14.90;99.90;;;;;;4998759;28;20080;-69
2023/08/09 04:55:55;;;;;;;8.18;1.25;;;14.80;99.90;;;;;;4998127;28;20023;-68
2023/08/09 04:58:20;;;;;;;3.22;1.27;;;14.90;99.90;;;;;;4997758;28;20029;-68
2023/08/09 05:00:46;;;;;;;1.63;1.17;;;15.00;99.90;;;;;;4997840;28;20022;-68
2023/08/09 05:03:11;;;;;;;3.33;1.10;;;15.00;99.90;;;;;;4998208;28;20046;-68
2023/08/09 05:05:37;;;;;;;1.80;0.93;;;14.90;99.90;;;;;;4998311;28;20044;-68
2023/08/09 05:08:03;;;;;;;5.30;0.95;;;15.00;99.90;;;;;;4998600;28;20048;-68
2023/08/09 05:10:28;;;;;;;1.00;0.90;;;15.00;99.90;;;;;;4997852;28;20026;-68
2023/08/09 05:12:54;;;;;;;1.38;0.82;;;15.10;99.90;;;;;;4997546;28;20027;-68
2023/08/09 05:15:20;;;;;;;1.83;0.90;;;15.10;99.90;;;;;;4997478;28;20037;-68
2023/08/09 05:17:45;;;;;;;2.53;1.15;;;15.10;99.90;;;;;;4997869;28;20022;-68
2023/08/09 05:20:11;;;;;;;5.07;1.20;;;15.10;99.90;;;;;;4997632;28;20049;-68
2023/08/09 05:22:37;;;;;;;1.67;0.93;;;15.00;99.90;;;;;;4997415;28;20113;-68
2023/08/09 05:25:03;;;;;;;3.05;1.40;;;15.00;99.90;;;;;;4997369;28;20161;-68
2023/08/09 05:27:29;;;;;;;3.22;1.52;;;15.00;99.90;;;;;;4997338;28;20034;-69
2023/08/09 05:29:54;;;;;;;3.40;1.77;;;15.00;99.90;;;;;;4998089;28;20026;-69
2023/08/09 05:32:21;;;;;;;5.82;2.00;;;15.00;99.90;;;;;;4997252;28;20121;-68
2023/08/09 05:34:47;;;;;;;4.18;1.67;;;14.90;99.90;;;;;;4997953;28;20117;-68
2023/08/09 05:37:12;;;;;;;3.28;1.30;;;14.80;99.90;;;;;;4998111;28;20054;-69
2023/08/09 05:39:38;;;;;;;1.40;1.23;;;14.90;99.90;;;;;;4997439;28;20030;-69
2023/08/09 05:42:04;;;;;;;3.80;1.63;;;14.90;99.90;;;;;;4997805;28;20026;-69
2023/08/09 05:44:29;;;;;;;3.55;1.70;;;14.90;99.90;;;;;;4997718;28;20031;-68
2023/08/09 05:46:55;;;;;;;2.83;1.50;;;14.90;99.90;;;;;;4997028;28;20026;-68
2023/08/09 05:49:20;;;;;;;2.42;1.52;;;14.80;99.90;;;;;;4998190;28;20072;-68
2023/08/09 05:51:46;;;;;;;2.58;1.55;;;14.80;99.90;;;;;;4997942;28;20026;-68
2023/08/09 05:54:11;;;;;;;2.42;1.10;;;14.70;99.90;;;;;;4997704;28;20023;-69
2023/08/09 05:56:37;;;;;;;1.50;1.05;;;14.60;99.90;;;;;;4997330;28;20022;-68
2023/08/09 05:59:04;;;;;;;12.18;1.95;;;14.60;99.90;;;;;;4997717;28;20019;-69
2023/08/09 06:01:30;;;;;;;2.33;1.60;;;14.70;99.90;;;;;;4997987;28;20097;-69
2023/08/09 06:03:56;;;;;;;3.08;1.70;;;14.60;99.90;;;;;;4997167;28;20074;-68
2023/08/09 06:06:22;;;;;;;5.85;1.88;;;14.70;99.90;;;;;;4997095;28;20100;-69
2023/08/09 06:08:48;;;;;;;4.15;1.88;;;14.70;99.90;;;;;;4996950;28;20030;-68
2023/08/09 06:11:14;;;;;;;4.38;1.67;;;14.60;99.90;;;;;;4997595;28;20078;-68
2023/08/09 06:13:39;;;;;;;2.38;1.50;;;14.40;99.90;;;;;;4998272;28;20027;-68
2023/08/09 06:16:05;;;;;;;1.38;1.10;;;14.30;99.90;;;;;;4997241;28;20022;-68
2023/08/09 06:18:30;;;;;;;2.58;1.50;;;14.20;99.90;;;;;;4996665;28;20030;-68
2023/08/09 06:20:56;;;;;;;5.28;1.92;;;14.20;99.90;;;;;;4996774;28;20014;-68
2023/08/09 06:23:21;;;;;;;3.00;1.63;;;14.30;99.90;;;;;;4997599;28;20023;-68
2023/08/09 06:25:49;;;;;;;2.85;1.90;;;14.40;99.90;;;;;;4996784;28;20018;-68
2023/08/09 06:28:16;;;;;;;3.15;1.15;;;14.40;99.90;;;;;;5000665;28;20094;-68
2023/08/09 06:30:41;;;;;;;1.80;0.90;;;14.30;99.90;;;;;;5000639;28;20062;-68
2023/08/09 06:33:07;;;;;;;1.77;1.13;;;14.40;99.90;;;;;;5000441;28;20023;-68
2023/08/09 06:35:33;;;;;;;3.03;1.00;;;14.40;99.90;;;;;;5000293;28;20118;-68
2023/08/09 06:37:58;;;;;;;1.02;0.90;;;14.50;99.90;;;;;;5000420;28;20078;-68
2023/08/09 06:40:24;;;;;;;3.92;1.00;;;14.60;99.90;;;;;;5000351;28;20027;-68
2023/08/09 06:42:50;;;;;;;1.10;1.00;;;14.70;99.90;;;;;;5000485;28;20026;-68
2023/08/09 06:45:16;;;;;;;1.70;1.00;;;14.80;99.90;;;;;;5000188;28;20032;-68
2023/08/09 06:47:41;;;;;;;1.15;1.00;;;15.00;99.90;;;;;;5001164;28;20038;-68
2023/08/09 06:50:07;;;;;;;9.30;1.40;;;15.10;99.90;;;;;;5000631;28;20030;-68
2023/08/09 06:52:36;;;;;;;2.65;1.10;;;15.10;99.90;;;;;;5000634;28;20076;-68
2023/08/09 06:55:02;;;;;;;1.77;1.10;;;15.10;99.90;;;;;;5000167;28;20030;-69
2023/08/09 06:57:28;;;;;;;4.25;1.70;;;15.30;99.90;;;;;;5000328;28;20046;-68
2023/08/09 06:59:54;;;;;;;2.22;1.23;;;15.20;99.90;;;;;;5001596;28;20055;-68
2023/08/09 07:02:20;;;;;;;1.73;0.90;;;15.40;99.90;;;;;;5000398;28;20030;-69
2023/08/09 07:04:46;;;;;;;2.15;1.30;;;15.60;99.90;;;;;;4999957;28;20045;-68
2023/08/09 07:07:13;;;;;;;3.08;0.90;;;15.60;99.90;;;;;;4999708;28;20042;-68
2023/08/09 07:09:38;;;;;;;2.30;0.90;;;15.70;99.90;;;;;;4999913;28;20030;-68
2023/08/09 07:12:04;;;;;;;1.40;0.73;;;15.60;99.90;;;;;;4999837;28;20168;-69
2023/08/09 07:14:30;;;;;;;1.52;1.02;;;15.80;99.90;;;;;;4999712;28;20026;-69
2023/08/09 07:16:55;;;;;;;1.20;0.93;;;15.80;99.90;;;;;;4999722;28;20026;-69
2023/08/09 07:19:21;;;;;;;0.73;0.73;;;15.80;99.90;;;;;;4999934;28;20077;-69
2023/08/09 07:21:47;;;;;;;2.55;0.73;;;15.90;99.90;;;;;;4999872;28;20033;-69
2023/08/09 07:24:12;;;;;;;0.88;0.60;;;15.90;99.90;;;;;;5000514;28;20022;-69
2023/08/09 07:26:38;;;;;;;4.05;0.93;;;15.90;99.90;;;;;;4999578;28;20026;-69
2023/08/09 07:29:04;;;;;;;1.25;0.82;;;16.10;99.90;;;;;;5000112;28;20030;-69
2023/08/09 07:31:29;;;;;;;3.50;0.70;;;16.10;99.90;;;;;;4999574;28;20028;-69
2023/08/09 07:33:55;;;;;;;0.90;0.75;;;16.30;99.90;;;;;;5000490;28;20031;-68
2023/08/09 07:36:21;;;;;;;5.72;1.10;;;16.50;99.90;;;;;;4999640;28;20081;-67
2023/08/09 07:38:46;;;;;;;1.98;0.57;;;16.40;99.90;;;;;;4998445;28;20030;-67
2023/08/09 07:41:12;;;;;;;1.65;0.65;;;16.60;99.90;;;;;;4999279;28;20029;-67
2023/08/09 07:43:38;;;;;;;2.22;0.60;;;16.60;99.90;;;;;;4999315;28;20066;-67
2023/08/09 07:46:05;;;;;;;0.47;0.43;;;16.50;99.90;;;;;;4999992;28;20026;-67
2023/08/09 07:48:32;;;;;;;0.82;0.57;;;16.40;99.90;;;;;;4999188;28;20046;-67
2023/08/09 07:50:58;;;;;;;1.25;0.90;;;16.50;99.90;;;;;;4999025;28;20037;-68
2023/08/09 07:53:24;;;;;;;0.60;0.45;;;16.50;99.90;;;;;;4998918;28;20027;-68
2023/08/09 07:55:49;;;;;;;1.08;0.73;;;16.50;99.90;;;;;;4999866;28;20029;-67
2023/08/09 07:58:15;;;;;;;2.03;0.50;;;16.50;99.90;;;;;;4999322;28;20035;-67
2023/08/09 08:00:40;;;;;;;0.82;0.60;;;16.50;99.90;;;;;;4999898;28;20026;-67
2023/08/09 08:03:06;;;;;;;0.95;0.70;;;16.50;99.90;;;;;;4999221;28;20121;-68
2023/08/09 08:05:31;;;;;;;0.82;0.60;;;16.70;99.90;;;;;;4999168;28;20040;-70
2023/08/09 08:07:57;;;;;;;0.55;0.55;;;16.80;99.90;;;;;;5000027;28;20033;-70
2023/08/09 08:10:23;;;;;;;1.67;0.60;;;16.70;99.90;;;;;;4999156;28;20033;-70
2023/08/09 08:12:49;;;;;;;2.42;1.00;;;16.80;99.90;;;;;;4998750;28;20057;-69
2023/08/09 08:15:16;;;;;;;2.25;0.70;;;16.80;99.90;;;;;;4998799;28;20034;-68
2023/08/09 08:17:42;;;;;;;2.30;0.70;;;16.90;99.90;;;;;;4999651;28;20027;-68
2023/08/09 08:20:15;;;;;;;0.82;0.60;;;16.80;99.90;;;;;;4999796;28;20187;-68
2023/08/09 08:22:46;;;;;;;4.05;0.70;;;16.80;99.90;;;;;;4998469;28;20113;-69
2023/08/09 08:25:12;;;;;;;1.67;0.90;;;16.90;99.90;;;;;;4998383;28;20069;-69
2023/08/09 08:27:40;;;;;;;0.77;0.63;;;16.90;99.90;;;;;;4998556;28;20117;-69
2023/08/09 08:30:08;;;;;;;1.63;0.80;;;17.00;99.90;;;;;;4998541;28;20030;-70
2023/08/09 08:32:34;;;;;;;1.48;0.65;;;17.20;99.90;;;;;;4999337;28;20137;-69
2023/08/09 08:35:02;;;;;;;1.05;0.60;;;17.40;99.90;;;;;;4998182;28;20093;-70
2023/08/09 08:37:28;;;;;;;2.85;0.85;;;17.50;99.90;;;;;;4998404;28;20018;-69
2023/08/09 08:39:53;;;;;;;2.53;0.60;;;17.50;99.90;;;;;;4999648;28;20077;-69
2023/08/09 08:42:19;;;;;;;0.68;0.65;;;17.50;99.90;;;;;;4998214;28;20045;-69
2023/08/09 08:44:45;;;;;;;0.65;0.60;;;17.50;99.90;;;;;;4998140;28;20122;-69
2023/08/09 08:47:11;;;;;;;1.05;0.60;;;17.60;99.90;;;;;;4998386;28;20068;-69
2023/08/09 08:49:39;;;;;;;3.15;0.80;;;17.70;99.90;;;;;;4999089;28;20105;-69
2023/08/09 08:52:07;;;;;;;1.60;0.90;;;17.70;99.90;;;;;;4999226;28;20113;-69
2023/08/09 08:54:34;;;;;;;0.93;0.80;;;17.80;99.90;;;;;;4997698;28;20026;-69
2023/08/09 08:56:59;;;;;;;3.05;0.70;;;17.90;99.90;;;;;;4998642;28;20033;-69
2023/08/09 08:59:25;;;;;;;1.75;0.75;;;18.20;99.90;;;;;;4997716;28;20034;-69
2023/08/09 09:01:51;;;;;;;3.83;1.75;;;18.30;99.90;;;;;;4998418;28;20026;-69
2023/08/09 09:04:17;;;;;;;0.95;0.70;;;18.30;99.90;;;;;;4998044;28;20026;-69
2023/08/09 09:06:43;;;;;;;4.13;0.75;;;18.40;99.90;;;;;;4997677;28;20126;-69
2023/08/09 09:09:13;;;;;;;1.33;0.60;;;18.30;99.90;;;;;;4998298;28;20030;-69
2023/08/09 09:11:40;;;;;;;3.63;0.80;;;18.20;99.90;;;;;;4997644;28;20027;-69
2023/08/09 09:14:13;;;;;;;2.15;0.60;;;18.20;99.90;;;;;;4998291;28;20041;-69
2023/08/09 09:16:39;;;;;;;0.90;0.65;;;18.20;99.90;;;;;;4998304;28;20026;-69
2023/08/09 09:19:05;;;;;;;3.80;0.70;;;18.20;99.90;;;;;;4998454;28;20019;-69
2023/08/09 09:21:32;;;;;;;3.85;0.93;;;18.20;99.90;;;;;;4997828;28;20049;-69
2023/08/09 09:24:08;;;;;;;3.63;0.73;;;18.20;99.90;;;;;;4997425;28;20033;-69
2023/08/09 09:26:35;;;;;;;5.50;0.77;;;18.50;99.90;;;;;;4998180;28;20033;-69
2023/08/09 09:29:00;;;;;;;2.58;0.70;;;18.80;99.90;;;;;;4997163;28;20076;-69
2023/08/09 09:31:39;;;;;;;1.75;0.70;;;18.90;99.90;;;;;;4997434;28;20022;-69
2023/08/09 09:34:09;;;;;;;1.23;0.65;;;18.90;99.90;;;;;;4997680;28;20109;-69
2023/08/09 09:36:39;;;;;;;0.95;0.50;;;19.00;99.90;;;;;;4998028;28;20023;-69
2023/08/09 09:39:09;;;;;;;3.95;0.90;;;19.00;99.90;;;;;;4997109;28;20026;-69
2023/08/09 09:41:36;;;;;;;0.73;0.50;;;18.90;99.90;;;;;;4997103;28;20018;-69
2023/08/09 09:44:03;;;;;;;1.08;0.77;;;19.20;99.90;;;;;;4997124;28;20109;-69
2023/08/09 09:46:28;;;;;;;0.63;0.60;;;19.50;99.90;;;;;;4997709;28;20034;-69
2023/08/09 09:49:05;;;;;;;1.55;0.60;;;19.40;99.90;;;;;;4997086;28;20093;-69
2023/08/09 09:51:31;;;;;;;2.15;0.70;;;19.50;99.90;;;;;;4996937;28;20027;-69
2023/08/09 09:53:57;;;;;;;1.35;0.50;;;19.90;99.90;;;;;;4996891;28;20030;-69
2023/08/09 09:56:22;;;;;;;3.90;1.42;;;19.80;99.90;;;;;;4997230;28;20023;-69
2023/08/09 09:58:48;;;;;;;1.25;0.70;;;19.90;99.90;;;;;;4997007;28;20041;-69
2023/08/09 10:01:22;;;;;;;1.25;0.63;;;20.10;99.90;;;;;;4996465;28;20113;-69
2023/08/09 10:03:53;;;;;;;0.50;0.50;;;20.00;99.90;;;;;;4997715;28;20022;-69
2023/08/09 10:06:25;;;;;;;0.95;0.55;;;19.70;99.90;;;;;;4996647;28;20038;-69
2023/08/09 10:08:55;;;;;;;2.67;0.90;;;20.10;99.90;;;;;;4997519;28;20038;-69
2023/08/09 10:11:23;;;;;;;2.10;0.73;;;20.50;99.90;;;;;;4996759;28;20065;-69
2023/08/09 10:13:50;;;;;;;0.98;0.60;;;20.30;99.90;;;;;;4997152;28;20030;-69
2023/08/09 10:16:19;;;;;;;2.25;0.70;;;20.20;99.90;;;;;;4996630;28;20057;-69
2023/08/09 10:18:49;;;;;;;1.15;0.57;;;20.10;99.90;;;;;;4997393;28;20042;-69
2023/08/09 10:21:17;;;;;;;3.25;0.70;;;20.10;99.90;;;;;;4997512;28;20022;-69
2023/08/09 10:23:57;;;;;;;1.48;1.08;;;20.20;99.90;;;;;;4996762;28;20022;-69
2023/08/09 10:26:29;;;;;;;3.85;0.60;;;20.20;99.90;;;;;;4996596;28;20059;-69
2023/08/09 10:29:08;;;;;;;0.80;0.80;;;20.10;99.90;;;;;;4997485;28;20037;-69
2023/08/09 10:31:57;;;;;;;1.17;0.63;;;20.10;99.90;;;;;;4997462;28;20022;-69
2023/08/09 10:34:36;;;;;;;1.90;0.65;;;20.20;99.90;;;;;;4997472;28;20053;-69
2023/08/09 10:37:04;;;;;;;7.78;0.88;;;20.10;99.90;;;;;;4997384;28;20045;-69
2023/08/09 10:39:31;;;;;;;5.18;0.63;;;20.10;99.90;;;;;;4996489;28;20157;-69
2023/08/09 10:42:08;;;;;;;0.88;0.60;;;20.30;99.90;;;;;;4997310;28;20026;-69
2023/08/09 10:44:40;;;;;;;2.17;0.70;;;20.30;99.90;;;;;;4996758;28;20026;-69
2023/08/09 10:47:12;;;;;;;0.65;0.50;;;20.60;99.90;;;;;;4996386;28;20030;-69
2023/08/09 10:49:55;;;;;;;2.45;0.68;;;21.10;99.90;;;;;;4997328;28;20029;-69
2023/08/09 10:52:31;;;;;;;1.83;0.70;;;22.20;99.90;;;;;;4997578;28;20022;-69
2023/08/09 10:55:19;;;;;;;1.80;0.73;;;23.00;99.90;;;;;;4996156;28;20030;-69
2023/08/09 10:57:48;;;;;;;2.17;0.70;;;23.60;99.90;;;;;;4996490;28;20030;-69
2023/08/09 11:00:14;;;;;;;1.67;0.68;;;23.70;99.90;;;;;;4996228;28;20022;-69
2023/08/09 11:02:46;;;;;;;3.13;1.70;;;23.20;99.90;;;;;;4996477;28;20030;-69
2023/08/09 11:05:12;;;;;;;2.33;0.90;;;23.70;99.90;;;;;;4996222;28;20042;-69
2023/08/09 11:07:46;;;;;;;5.32;0.75;;;23.80;99.90;;;;;;4996247;28;20034;-69
2023/08/09 11:10:15;;;;;;;1.40;0.90;;;23.30;99.90;;;;;;4996366;28;20026;-69
2023/08/09 11:12:43;;;;;;;2.03;0.80;;;23.50;99.90;;;;;;4996620;28;20030;-69
2023/08/09 11:15:09;;;;;;;1.60;1.00;;;24.30;99.90;;;;;;5000439;28;20041;-69
2023/08/09 11:17:37;;;;;;;1.00;0.75;;;24.20;99.90;;;;;;4999666;28;20050;-69
2023/08/09 11:20:13;;;;;;;2.72;1.00;;;23.70;99.90;;;;;;4999530;28;20117;-69
2023/08/09 11:22:39;;;;;;;4.47;0.88;;;23.20;99.90;;;;;;4999674;28;20030;-69
2023/08/09 11:25:06;;;;;;;2.15;0.82;;;22.30;99.90;;;;;;4999552;28;20026;-70
2023/08/09 11:27:32;;;;;;;0.77;0.77;;;22.40;99.90;;;;;;4999583;28;20054;-69
2023/08/09 11:29:57;;;;;;;5.28;1.35;;;22.50;99.90;;;;;;5000378;28;20024;-69
2023/08/09 11:32:27;;;;;;;1.38;0.60;;;22.40;99.90;;;;;;5000392;28;20031;-69
2023/08/09 11:34:53;;;;;;;1.55;0.85;;;22.70;99.90;;;;;;4999302;28;20026;-69
2023/08/09 11:37:19;;;;;;;2.40;0.82;;;22.90;99.90;;;;;;4999412;28;20022;-69
2023/08/09 11:39:45;;;;;;;0.88;0.70;;;22.60;99.90;;;;;;5000196;28;20026;-69
2023/08/09 11:42:10;;;;;;;2.03;0.80;;;22.90;99.90;;;;;;5000112;28;20086;-69
2023/08/09 11:44:38;;;;;;;1.58;0.80;;;23.00;99.90;;;;;;4999253;28;20026;-69
2023/08/09 11:47:04;;;;;;;1.48;0.68;;;22.50;99.90;;;;;;4999004;28;20026;-69
2023/08/09 11:49:31;;;;;;;1.85;0.70;;;22.40;99.90;;;;;;4999115;28;20022;-69
2023/08/09 11:51:59;;;;;;;1.77;0.60;;;22.80;99.90;;;;;;4998975;28;20027;-69
2023/08/09 11:54:26;;;;;;;3.88;0.70;;;22.70;99.90;;;;;;4999231;28;20093;-69
2023/08/09 11:56:52;;;;;;;0.98;0.60;;;22.70;99.90;;;;;;4999187;28;20026;-69
2023/08/09 11:59:19;;;;;;;1.48;0.82;;;22.10;99.90;;;;;;4999075;28;20053;-69
2023/08/09 12:01:47;;;;;;;0.65;0.50;;;21.90;99.90;;;;;;4999240;28;20026;-69
2023/08/09 12:04:19;;;;;;;2.20;0.70;;;21.60;99.90;;;;;;4998902;28;20031;-69
2023/08/09 12:06:50;;;;;;;2.90;0.85;;;21.60;99.90;;;;;;4999918;28;20066;-69
2023/08/09 12:09:35;;;;;;;0.73;0.60;;;22.00;99.90;;;;;;4998904;28;20022;-69
2023/08/09 12:12:18;;;;;;;1.23;0.70;;;22.40;99.90;;;;;;4998734;28;20030;-69
2023/08/09 12:14:50;;;;;;;0.95;0.60;;;22.40;99.90;;;;;;4999616;28;20030;-69
2023/08/09 12:17:21;;;;;;;0.88;0.80;;;22.60;99.90;;;;;;4998404;28;20034;-69
2023/08/09 12:19:47;;;;;;;0.93;0.50;;;22.70;99.90;;;;;;4998633;28;20029;-69
2023/08/09 12:22:13;;;;;;;1.08;0.98;;;22.60;99.90;;;;;;4999445;28;20022;-69
2023/08/09 12:24:39;;;;;;;1.25;0.60;;;22.40;99.90;;;;;;4999049;28;20037;-69
2023/08/09 12:27:04;;;;;;;1.23;0.80;;;22.40;99.90;;;;;;4998594;28;20026;-69
2023/08/09 12:29:30;;;;;;;4.10;0.80;;;22.40;99.90;;;;;;4998281;28;20026;-69
2023/08/09 12:31:56;;;;;;;2.03;0.88;;;22.40;99.90;;;;;;4998489;28;20031;-69
2023/08/09 12:34:22;;;;;;;2.70;0.70;;;22.60;99.90;;;;;;4998430;28;20026;-69
2023/08/09 12:36:47;;;;;;;1.00;0.57;;;22.90;99.90;;;;;;4998695;28;20022;-69
2023/08/09 12:39:14;;;;;;;1.02;0.80;;;23.00;99.90;;;;;;4998146;28;20030;-69
2023/08/09 12:41:40;;;;;;;0.77;0.60;;;22.90;99.90;;;;;;4999162;28;20022;-69
2023/08/09 12:44:09;;;;;;;1.02;0.60;;;23.10;99.90;;;;;;4998260;28;20077;-69
2023/08/09 12:46:35;;;;;;;2.58;0.60;;;23.00;99.90;;;;;;4998306;28;20118;-69
2023/08/09 12:49:02;;;;;;;1.02;0.70;;;23.10;99.90;;;;;;4998906;28;20105;-69